sensor_id;sensor_type;location;lat;lon;timestamp;pressure;altitude;pressure_sealevel;temperature;humidity
13241;BME280;6687;47.790;7.322;2023-06-22T05:24:30;98763.28;;;25.38;65.07
13241;BME280;6687;47.790;7.322;2023-06-22T05:26:57;98766.13;;;25.49;63.93
13241;BME280;6687;47.790;7.322;2023-06-22T05:29:24;98780.13;;;25.51;64.29
13241;BME280;6687;47.790;7.322;2023-06-22T05:31:52;98791.09;;;25.74;63.73
13241;BME280;6687;47.790;7.322;2023-06-22T05:34:18;98777.28;;;25.69;64.16
13241;BME280;6687;47.790;7.322;2023-06-22T05:36:45;98773.09;;;25.79;63.73
13241;BME280;6687;47.790;7.322;2023-06-22T05:39:13;98781.41;;;26.02;63.91
13241;BME280;6687;47.790;7.322;2023-06-22T05:41:41;98789.81;;;26.08;63.30
13241;BME280;6687;47.790;7.322;2023-06-22T05:44:08;98791.78;;;26.19;62.82
13241;BME280;6687;47.790;7.322;2023-06-22T05:46:35;98795.56;;;26.29;62.00
13241;BME280;6687;47.790;7.322;2023-06-22T05:49:02;98803.34;;;26.32;62.76
13241;BME280;6687;47.790;7.322;2023-06-22T05:51:28;98804.59;;;26.27;63.27
13241;BME280;6687;47.790;7.322;2023-06-22T05:53:55;98813.03;;;26.19;63.60
13241;BME280;6687;47.790;7.322;2023-06-22T05:56:22;98822.88;;;26.31;62.22
13241;BME280;6687;47.790;7.322;2023-06-22T05:58:50;98811.38;;;26.58;62.47
13241;BME280;6687;47.790;7.322;2023-06-22T06:01:17;98800.50;;;26.75;61.85
13241;BME280;6687;47.790;7.322;2023-06-22T06:03:43;98798.81;;;26.87;61.51
13241;BME280;6687;47.790;7.322;2023-06-22T06:06:10;98805.84;;;27.01;60.92
13241;BME280;6687;47.790;7.322;2023-06-22T06:08:37;98818.81;;;26.80;61.43
13241;BME280;6687;47.790;7.322;2023-06-22T06:11:04;98821.66;;;27.30;60.34
13241;BME280;6687;47.790;7.322;2023-06-22T06:13:31;98829.09;;;27.50;59.65
13241;BME280;6687;47.790;7.322;2023-06-22T06:15:59;98824.91;;;27.72;59.18
13241;BME280;6687;47.790;7.322;2023-06-22T06:18:26;98825.16;;;27.56;59.04
13241;BME280;6687;47.790;7.322;2023-06-22T06:20:53;98844.84;;;27.92;58.09
13241;BME280;6687;47.790;7.322;2023-06-22T06:23:19;98871.44;;;28.05;57.52
13241;BME280;6687;47.790;7.322;2023-06-22T06:25:46;98884.53;;;28.08;56.51
13241;BME280;6687;47.790;7.322;2023-06-22T06:28:13;98870.78;;;28.14;55.80
13241;BME280;6687;47.790;7.322;2023-06-22T06:30:40;98849.38;;;28.03;56.90
13241;BME280;6687;47.790;7.322;2023-06-22T06:33:09;98831.16;;;28.09;58.70
13241;BME280;6687;47.790;7.322;2023-06-22T06:35:35;98839.25;;;28.08;60.39
13241;BME280;6687;47.790;7.322;2023-06-22T06:38:03;98857.22;;;28.17;59.34
13241;BME280;6687;47.790;7.322;2023-06-22T06:40:30;98848.44;;;28.04;58.27
13241;BME280;6687;47.790;7.322;2023-06-22T06:42:56;98853.97;;;28.01;58.34
13241;BME280;6687;47.790;7.322;2023-06-22T06:45:24;98862.06;;;28.36;57.34
13241;BME280;6687;47.790;7.322;2023-06-22T06:47:51;98867.47;;;28.47;57.05
13241;BME280;6687;47.790;7.322;2023-06-22T06:50:20;98874.91;;;28.55;55.84
13241;BME280;6687;47.790;7.322;2023-06-22T06:52:47;98882.19;;;28.53;54.92
13241;BME280;6687;47.790;7.322;2023-06-22T06:55:15;98893.19;;;28.72;54.64
13241;BME280;6687;47.790;7.322;2023-06-22T06:57:42;98891.78;;;28.80;53.24
13241;BME280;6687;47.790;7.322;2023-06-22T07:00:11;98881.16;;;28.91;53.14
13241;BME280;6687;47.790;7.322;2023-06-22T07:02:39;98895.13;;;29.30;52.22
13241;BME280;6687;47.790;7.322;2023-06-22T07:05:06;98886.56;;;29.60;51.77
13241;BME280;6687;47.790;7.322;2023-06-22T07:07:35;98894.81;;;29.68;50.05
13241;BME280;6687;47.790;7.322;2023-06-22T07:10:02;98901.03;;;29.80;49.97
13241;BME280;6687;47.790;7.322;2023-06-22T07:12:29;98907.13;;;29.93;50.45
13241;BME280;6687;47.790;7.322;2023-06-22T07:15:01;98897.91;;;29.98;48.34
13241;BME280;6687;47.790;7.322;2023-06-22T07:17:28;98898.88;;;29.85;49.46
13241;BME280;6687;47.790;7.322;2023-06-22T07:19:55;98885.53;;;29.97;49.94
13241;BME280;6687;47.790;7.322;2023-06-22T07:22:21;98890.94;;;30.29;48.78
13241;BME280;6687;47.790;7.322;2023-06-22T07:24:49;98876.28;;;30.35;48.02
13241;BME280;6687;47.790;7.322;2023-06-22T07:27:16;98891.75;;;30.52;47.71
13241;BME280;6687;47.790;7.322;2023-06-22T07:29:44;98910.38;;;30.53;47.42
13241;BME280;6687;47.790;7.322;2023-06-22T07:32:11;98886.88;;;30.68;46.68
13241;BME280;6687;47.790;7.322;2023-06-22T07:34:38;98882.69;;;30.76;47.14
13241;BME280;6687;47.790;7.322;2023-06-22T07:37:05;98866.06;;;31.04;46.72
13241;BME280;6687;47.790;7.322;2023-06-22T07:39:31;98857.56;;;30.99;46.00
13241;BME280;6687;47.790;7.322;2023-06-22T07:41:59;98865.53;;;31.10;46.19
13241;BME280;6687;47.790;7.322;2023-06-22T07:44:26;98864.16;;;31.37;46.06
13241;BME280;6687;47.790;7.322;2023-06-22T07:46:53;98847.94;;;31.08;46.55
13241;BME280;6687;47.790;7.322;2023-06-22T07:49:20;98840.72;;;31.50;46.29
13241;BME280;6687;47.790;7.322;2023-06-22T07:51:46;98820.66;;;31.66;45.70
13241;BME280;6687;47.790;7.322;2023-06-22T07:54:13;98836.44;;;31.69;45.66
13241;BME280;6687;47.790;7.322;2023-06-22T07:56:41;98844.09;;;31.74;44.47
13241;BME280;6687;47.790;7.322;2023-06-22T07:59:09;98853.59;;;31.87;44.30
13241;BME280;6687;47.790;7.322;2023-06-22T08:01:36;98836.25;;;31.91;43.56
13241;BME280;6687;47.790;7.322;2023-06-22T08:04:03;98824.63;;;31.81;43.98
13241;BME280;6687;47.790;7.322;2023-06-22T08:06:31;98822.91;;;32.01;43.66
13241;BME280;6687;47.790;7.322;2023-06-22T08:08:57;98826.50;;;31.90;43.66
13241;BME280;6687;47.790;7.322;2023-06-22T08:11:24;98799.66;;;31.81;43.70
13241;BME280;6687;47.790;7.322;2023-06-22T08:13:51;98770.94;;;31.92;44.37
13241;BME280;6687;47.790;7.322;2023-06-22T08:16:19;98757.63;;;31.81;45.12
13241;BME280;6687;47.790;7.322;2023-06-22T08:18:46;98757.34;;;31.75;45.08
13241;BME280;6687;47.790;7.322;2023-06-22T08:21:13;98761.56;;;31.77;44.83
13241;BME280;6687;47.790;7.322;2023-06-22T08:23:40;98746.38;;;31.78;44.92
13241;BME280;6687;47.790;7.322;2023-06-22T08:26:07;98753.72;;;31.95;44.65
13241;BME280;6687;47.790;7.322;2023-06-22T08:28:34;98758.50;;;31.82;45.11
13241;BME280;6687;47.790;7.322;2023-06-22T08:31:02;98748.81;;;31.50;44.98
13241;BME280;6687;47.790;7.322;2023-06-22T08:33:30;98736.09;;;31.92;44.99
13241;BME280;6687;47.790;7.322;2023-06-22T08:35:58;98723.69;;;31.91;44.16
13241;BME280;6687;47.790;7.322;2023-06-22T08:38:25;98728.53;;;32.37;43.36
13241;BME280;6687;47.790;7.322;2023-06-22T08:40:52;98725.25;;;32.33;42.64
13241;BME280;6687;47.790;7.322;2023-06-22T08:43:18;98710.63;;;32.37;42.21
13241;BME280;6687;47.790;7.322;2023-06-22T08:45:45;98706.34;;;32.74;42.52
13241;BME280;6687;47.790;7.322;2023-06-22T08:48:12;98715.41;;;32.53;42.79
13241;BME280;6687;47.790;7.322;2023-06-22T08:50:40;98734.03;;;32.74;42.49
13241;BME280;6687;47.790;7.322;2023-06-22T08:53:07;98749.84;;;32.67;42.07
13241;BME280;6687;47.790;7.322;2023-06-22T08:55:33;98738.84;;;32.32;42.61
13241;BME280;6687;47.790;7.322;2023-06-22T08:58:00;98735.44;;;32.59;42.17
13241;BME280;6687;47.790;7.322;2023-06-22T09:00:27;98735.88;;;32.64;42.25
13241;BME280;6687;47.790;7.322;2023-06-22T09:02:58;98723.78;;;33.17;41.21
13241;BME280;6687;47.790;7.322;2023-06-22T09:05:24;98715.22;;;33.59;41.01
13241;BME280;6687;47.790;7.322;2023-06-22T09:07:53;98703.47;;;33.60;40.33
13241;BME280;6687;47.790;7.322;2023-06-22T09:10:21;98712.22;;;33.90;40.14
13241;BME280;6687;47.790;7.322;2023-06-22T09:12:47;98740.28;;;33.87;39.45
13241;BME280;6687;47.790;7.322;2023-06-22T09:15:14;98750.28;;;33.95;39.38
13241;BME280;6687;47.790;7.322;2023-06-22T09:17:41;98745.44;;;33.98;39.01
13241;BME280;6687;47.790;7.322;2023-06-22T09:20:09;98758.78;;;33.90;38.92
13241;BME280;6687;47.790;7.322;2023-06-22T09:22:36;98758.81;;;33.53;39.59
13241;BME280;6687;47.790;7.322;2023-06-22T09:25:05;98736.03;;;33.57;43.76
13241;BME280;6687;47.790;7.322;2023-06-22T09:27:32;98728.69;;;34.04;40.94
13241;BME280;6687;47.790;7.322;2023-06-22T09:29:59;98739.81;;;33.92;39.64
13241;BME280;6687;47.790;7.322;2023-06-22T09:32:26;98734.03;;;33.68;39.29
13241;BME280;6687;47.790;7.322;2023-06-22T09:34:52;98738.22;;;33.43;40.13
13241;BME280;6687;47.790;7.322;2023-06-22T09:37:19;98721.56;;;33.67;39.66
13241;BME280;6687;47.790;7.322;2023-06-22T09:39:46;98722.06;;;33.99;39.66
13241;BME280;6687;47.790;7.322;2023-06-22T09:42:14;98711.53;;;33.87;39.51
13241;BME280;6687;47.790;7.322;2023-06-22T09:44:41;98699.81;;;34.24;38.84
13241;BME280;6687;47.790;7.322;2023-06-22T09:47:07;98701.44;;;34.17;38.57
13241;BME280;6687;47.790;7.322;2023-06-22T09:49:34;98705.63;;;34.38;38.25
13241;BME280;6687;47.790;7.322;2023-06-22T09:52:01;98682.06;;;34.58;38.23
13241;BME280;6687;47.790;7.322;2023-06-22T09:54:28;98700.75;;;34.59;37.81
13241;BME280;6687;47.790;7.322;2023-06-22T09:56:54;98715.31;;;34.49;37.41
13241;BME280;6687;47.790;7.322;2023-06-22T09:59:22;98717.25;;;34.56;37.45
13241;BME280;6687;47.790;7.322;2023-06-22T10:01:49;98718.28;;;34.63;37.38
13241;BME280;6687;47.790;7.322;2023-06-22T10:04:16;98708.00;;;34.77;36.77
13241;BME280;6687;47.790;7.322;2023-06-22T10:06:42;98691.28;;;34.99;37.42
13241;BME280;6687;47.790;7.322;2023-06-22T10:09:09;98707.69;;;34.80;37.21
13241;BME280;6687;47.790;7.322;2023-06-22T10:11:36;98715.81;;;34.88;37.31
13241;BME280;6687;47.790;7.322;2023-06-22T10:14:03;98733.63;;;34.89;36.84
13241;BME280;6687;47.790;7.322;2023-06-22T10:16:32;98741.28;;;34.76;36.68
13241;BME280;6687;47.790;7.322;2023-06-22T10:19:01;98739.41;;;34.94;37.15
13241;BME280;6687;47.790;7.322;2023-06-22T10:21:27;98737.25;;;34.98;36.97
13241;BME280;6687;47.790;7.322;2023-06-22T10:23:54;98736.19;;;34.91;36.57
13241;BME280;6687;47.790;7.322;2023-06-22T10:26:21;98748.56;;;35.10;36.45
13241;BME280;6687;47.790;7.322;2023-06-22T10:28:48;98751.72;;;35.23;36.08
13241;BME280;6687;47.790;7.322;2023-06-22T10:31:15;98756.19;;;35.14;36.48
13241;BME280;6687;47.790;7.322;2023-06-22T10:33:43;98744.41;;;35.15;37.17
13241;BME280;6687;47.790;7.322;2023-06-22T10:36:10;98748.53;;;34.75;36.20
13241;BME280;6687;47.790;7.322;2023-06-22T10:38:37;98748.75;;;34.82;37.41
13241;BME280;6687;47.790;7.322;2023-06-22T10:41:04;98757.38;;;34.94;36.49
13241;BME280;6687;47.790;7.322;2023-06-22T10:43:30;98754.97;;;35.09;36.36
13241;BME280;6687;47.790;7.322;2023-06-22T10:45:57;98744.88;;;35.11;36.33
13241;BME280;6687;47.790;7.322;2023-06-22T10:48:24;98745.16;;;34.99;36.68
13241;BME280;6687;47.790;7.322;2023-06-22T10:50:52;98740.28;;;35.29;36.66
13241;BME280;6687;47.790;7.322;2023-06-22T10:53:19;98734.16;;;35.53;36.83
13241;BME280;6687;47.790;7.322;2023-06-22T10:55:46;98743.13;;;35.54;36.84
13241;BME280;6687;47.790;7.322;2023-06-22T10:58:13;98760.66;;;35.58;36.39
13241;BME280;6687;47.790;7.322;2023-06-22T11:00:40;98770.13;;;34.83;37.76
13241;BME280;6687;47.790;7.322;2023-06-22T11:03:06;98779.41;;;35.41;36.07
13241;BME280;6687;47.790;7.322;2023-06-22T11:05:33;98755.28;;;34.79;38.38
13241;BME280;6687;47.790;7.322;2023-06-22T11:08:01;98791.09;;;35.16;37.25
13241;BME280;6687;47.790;7.322;2023-06-22T11:10:28;98774.31;;;35.30;36.81
13241;BME280;6687;47.790;7.322;2023-06-22T11:12:54;98782.44;;;35.38;37.05
13241;BME280;6687;47.790;7.322;2023-06-22T11:15:23;98783.78;;;35.34;39.24
13241;BME280;6687;47.790;7.322;2023-06-22T11:17:50;98792.03;;;34.89;38.67
13241;BME280;6687;47.790;7.322;2023-06-22T11:20:16;98793.88;;;35.32;37.58
13241;BME280;6687;47.790;7.322;2023-06-22T11:22:43;98797.69;;;34.14;40.44
13241;BME280;6687;47.790;7.322;2023-06-22T11:25:11;98789.22;;;33.91;40.90
13241;BME280;6687;47.790;7.322;2023-06-22T11:27:38;98794.06;;;33.40;42.05
13241;BME280;6687;47.790;7.322;2023-06-22T11:30:06;98780.66;;;33.77;41.11
13241;BME280;6687;47.790;7.322;2023-06-22T11:32:33;98780.44;;;34.16;40.46
13241;BME280;6687;47.790;7.322;2023-06-22T11:35:00;98785.19;;;33.77;40.42
13241;BME280;6687;47.790;7.322;2023-06-22T11:37:27;98781.28;;;33.89;40.51
13241;BME280;6687;47.790;7.322;2023-06-22T11:39:53;98789.69;;;33.76;40.62
13241;BME280;6687;47.790;7.322;2023-06-22T11:42:21;98789.59;;;33.96;39.84
13241;BME280;6687;47.790;7.322;2023-06-22T11:44:50;98786.53;;;34.18;39.79
13241;BME280;6687;47.790;7.322;2023-06-22T11:47:17;98782.75;;;34.29;39.16
13241;BME280;6687;47.790;7.322;2023-06-22T11:49:44;98795.44;;;34.37;38.82
13241;BME280;6687;47.790;7.322;2023-06-22T11:52:10;98807.03;;;34.55;38.55
13241;BME280;6687;47.790;7.322;2023-06-22T11:54:37;98805.81;;;34.32;38.61
13241;BME280;6687;47.790;7.322;2023-06-22T11:57:04;98793.91;;;33.88;39.33
13241;BME280;6687;47.790;7.322;2023-06-22T11:59:33;98791.72;;;34.20;39.22
13241;BME280;6687;47.790;7.322;2023-06-22T12:01:59;98790.59;;;34.22;38.89
13241;BME280;6687;47.790;7.322;2023-06-22T12:04:26;98782.53;;;34.40;38.74
13241;BME280;6687;47.790;7.322;2023-06-22T12:06:53;98796.34;;;34.00;39.89
13241;BME280;6687;47.790;7.322;2023-06-22T12:09:19;98794.34;;;34.30;39.01
13241;BME280;6687;47.790;7.322;2023-06-22T12:11:46;98797.41;;;33.52;39.81
13241;BME280;6687;47.790;7.322;2023-06-22T12:14:13;98793.06;;;33.78;39.81
13241;BME280;6687;47.790;7.322;2023-06-22T12:16:41;98792.06;;;34.07;39.10
13241;BME280;6687;47.790;7.322;2023-06-22T12:19:09;98797.22;;;33.35;40.56
13241;BME280;6687;47.790;7.322;2023-06-22T12:21:37;98796.63;;;33.41;39.96
13241;BME280;6687;47.790;7.322;2023-06-22T12:24:04;98809.88;;;33.53;40.66
13241;BME280;6687;47.790;7.322;2023-06-22T12:26:31;98822.38;;;33.24;39.31
13241;BME280;6687;47.790;7.322;2023-06-22T12:28:58;98820.16;;;33.20;40.36
13241;BME280;6687;47.790;7.322;2023-06-22T12:31:24;98810.25;;;33.11;37.19
13241;BME280;6687;47.790;7.322;2023-06-22T12:33:52;98819.63;;;32.77;37.10
13241;BME280;6687;47.790;7.322;2023-06-22T12:36:19;98805.44;;;33.04;37.12
13241;BME280;6687;47.790;7.322;2023-06-22T12:38:46;98807.31;;;32.84;37.15
13241;BME280;6687;47.790;7.322;2023-06-22T12:41:12;98791.09;;;33.43;37.64
13241;BME280;6687;47.790;7.322;2023-06-22T12:43:40;98793.41;;;33.08;35.81
13241;BME280;6687;47.790;7.322;2023-06-22T12:46:07;98791.66;;;32.70;35.95
13241;BME280;6687;47.790;7.322;2023-06-22T12:48:33;98778.31;;;33.27;36.42
13241;BME280;6687;47.790;7.322;2023-06-22T12:51:08;98786.13;;;32.91;36.19
13241;BME280;6687;47.790;7.322;2023-06-22T12:53:35;98783.69;;;33.07;36.12
13241;BME280;6687;47.790;7.322;2023-06-22T12:56:01;98788.78;;;33.11;36.53
13241;BME280;6687;47.790;7.322;2023-06-22T12:58:28;98761.09;;;33.10;36.06
13241;BME280;6687;47.790;7.322;2023-06-22T13:00:55;98753.63;;;32.94;35.68
13241;BME280;6687;47.790;7.322;2023-06-22T13:03:21;98741.09;;;33.32;35.74
13241;BME280;6687;47.790;7.322;2023-06-22T13:05:50;98730.44;;;33.40;35.15
13241;BME280;6687;47.790;7.322;2023-06-22T13:08:18;98733.97;;;33.13;35.37
13241;BME280;6687;47.790;7.322;2023-06-22T13:10:45;98739.00;;;33.26;35.38
13241;BME280;6687;47.790;7.322;2023-06-22T13:13:11;98742.72;;;33.05;34.88
13241;BME280;6687;47.790;7.322;2023-06-22T13:15:38;98731.16;;;32.95;35.45
13241;BME280;6687;47.790;7.322;2023-06-22T13:18:05;98720.00;;;33.37;35.10
13241;BME280;6687;47.790;7.322;2023-06-22T13:20:32;98710.63;;;33.14;35.38
13241;BME280;6687;47.790;7.322;2023-06-22T13:22:58;98706.00;;;33.71;34.63
13241;BME280;6687;47.790;7.322;2023-06-22T13:25:26;98719.13;;;33.92;35.21
13241;BME280;6687;47.790;7.322;2023-06-22T13:27:53;98737.09;;;34.19;34.28
13241;BME280;6687;47.790;7.322;2023-06-22T13:30:20;98752.63;;;34.25;34.90
13241;BME280;6687;47.790;7.322;2023-06-22T13:32:46;98748.03;;;34.08;35.79
13241;BME280;6687;47.790;7.322;2023-06-22T13:35:13;98753.44;;;34.44;35.10
13241;BME280;6687;47.790;7.322;2023-06-22T13:37:40;98751.25;;;35.10;34.37
13241;BME280;6687;47.790;7.322;2023-06-22T13:40:08;98743.88;;;34.85;34.09
13241;BME280;6687;47.790;7.322;2023-06-22T13:42:36;98761.25;;;34.91;34.20
13241;BME280;6687;47.790;7.322;2023-06-22T13:45:03;98761.19;;;35.35;33.06
13241;BME280;6687;47.790;7.322;2023-06-22T13:47:30;98752.63;;;35.32;33.38
13241;BME280;6687;47.790;7.322;2023-06-22T13:49:57;98747.88;;;35.08;34.53
13241;BME280;6687;47.790;7.322;2023-06-22T13:52:24;98750.19;;;35.55;33.62
13241;BME280;6687;47.790;7.322;2023-06-22T13:54:50;98740.69;;;35.42;33.70
13241;BME280;6687;47.790;7.322;2023-06-22T13:57:17;98732.66;;;35.51;33.06
13241;BME280;6687;47.790;7.322;2023-06-22T13:59:45;98714.88;;;35.66;32.80
13241;BME280;6687;47.790;7.322;2023-06-22T14:02:12;98710.19;;;35.76;33.62
13241;BME280;6687;47.790;7.322;2023-06-22T14:04:39;98702.00;;;35.52;33.48
13241;BME280;6687;47.790;7.322;2023-06-22T14:07:05;98718.25;;;35.68;33.13
13241;BME280;6687;47.790;7.322;2023-06-22T14:09:32;98721.41;;;35.63;32.90
13241;BME280;6687;47.790;7.322;2023-06-22T14:12:03;98723.41;;;35.61;33.11
13241;BME280;6687;47.790;7.322;2023-06-22T14:14:29;98718.66;;;35.55;33.36
13241;BME280;6687;47.790;7.322;2023-06-22T14:16:57;98720.31;;;35.82;33.17
13241;BME280;6687;47.790;7.322;2023-06-22T14:19:24;98708.56;;;36.08;32.39
13241;BME280;6687;47.790;7.322;2023-06-22T14:21:51;98705.75;;;36.26;31.80
13241;BME280;6687;47.790;7.322;2023-06-22T14:24:18;98716.28;;;36.03;32.63
13241;BME280;6687;47.790;7.322;2023-06-22T14:26:44;98708.28;;;36.19;32.06
13241;BME280;6687;47.790;7.322;2023-06-22T14:29:11;98713.94;;;36.00;32.57
13241;BME280;6687;47.790;7.322;2023-06-22T14:31:38;98714.63;;;36.02;32.35
13241;BME280;6687;47.790;7.322;2023-06-22T14:34:06;98711.31;;;36.66;31.95
13241;BME280;6687;47.790;7.322;2023-06-22T14:36:33;98716.38;;;36.44;31.50
13241;BME280;6687;47.790;7.322;2023-06-22T14:38:59;98706.53;;;36.02;32.29
13241;BME280;6687;47.790;7.322;2023-06-22T14:41:26;98696.00;;;35.66;32.89
13241;BME280;6687;47.790;7.322;2023-06-22T14:43:53;98695.13;;;36.49;31.88
13241;BME280;6687;47.790;7.322;2023-06-22T14:46:19;98697.28;;;36.95;29.39
13241;BME280;6687;47.790;7.322;2023-06-22T14:48:46;98688.78;;;37.14;30.76
13241;BME280;6687;47.790;7.322;2023-06-22T14:51:15;98684.31;;;36.49;31.52
13241;BME280;6687;47.790;7.322;2023-06-22T14:53:43;98685.56;;;37.02;30.97
13241;BME280;6687;47.790;7.322;2023-06-22T14:56:10;98691.00;;;36.94;31.33
13241;BME280;6687;47.790;7.322;2023-06-22T14:58:39;98686.03;;;37.22;30.47
13241;BME280;6687;47.790;7.322;2023-06-22T15:01:06;98683.78;;;37.34;28.62
13241;BME280;6687;47.790;7.322;2023-06-22T15:03:34;98686.94;;;37.15;29.77
13241;BME280;6687;47.790;7.322;2023-06-22T15:06:01;98691.31;;;37.16;30.60
13241;BME280;6687;47.790;7.322;2023-06-22T15:08:30;98685.97;;;36.83;31.10
13241;BME280;6687;47.790;7.322;2023-06-22T15:10:58;98676.19;;;36.74;30.32
13241;BME280;6687;47.790;7.322;2023-06-22T15:13:26;98677.16;;;36.97;29.81
13241;BME280;6687;47.790;7.322;2023-06-22T15:15:53;98670.25;;;36.95;30.26
13241;BME280;6687;47.790;7.322;2023-06-22T15:18:19;98675.19;;;36.50;31.46
13241;BME280;6687;47.790;7.322;2023-06-22T15:20:46;98668.44;;;36.79;31.41
13241;BME280;6687;47.790;7.322;2023-06-22T15:23:13;98675.88;;;36.44;31.58
13241;BME280;6687;47.790;7.322;2023-06-22T15:25:41;98669.00;;;35.58;31.00
13241;BME280;6687;47.790;7.322;2023-06-22T15:28:09;98671.69;;;35.50;30.09
13241;BME280;6687;47.790;7.322;2023-06-22T15:30:36;98665.06;;;35.10;30.54
13241;BME280;6687;47.790;7.322;2023-06-22T15:33:03;98671.00;;;34.61;31.30
13241;BME280;6687;47.790;7.322;2023-06-22T15:35:30;98665.13;;;33.85;32.04
13241;BME280;6687;47.790;7.322;2023-06-22T15:37:56;98659.69;;;33.49;32.61
13241;BME280;6687;47.790;7.322;2023-06-22T15:40:23;98648.38;;;32.90;33.23
13241;BME280;6687;47.790;7.322;2023-06-22T15:42:51;98648.06;;;33.59;32.26
13241;BME280;6687;47.790;7.322;2023-06-22T15:45:18;98649.16;;;33.66;32.70
13241;BME280;6687;47.790;7.322;2023-06-22T15:47:44;98650.53;;;33.70;32.83
13241;BME280;6687;47.790;7.322;2023-06-22T15:50:11;98647.94;;;33.33;33.33
13241;BME280;6687;47.790;7.322;2023-06-22T15:52:39;98646.84;;;34.07;32.85
13241;BME280;6687;47.790;7.322;2023-06-22T15:55:06;98641.09;;;33.84;33.10
13241;BME280;6687;47.790;7.322;2023-06-22T15:57:34;98650.78;;;33.95;33.48
13241;BME280;6687;47.790;7.322;2023-06-22T16:00:03;98652.34;;;34.15;34.09
13241;BME280;6687;47.790;7.322;2023-06-22T16:02:31;98661.47;;;34.22;34.39
13241;BME280;6687;47.790;7.322;2023-06-22T16:04:57;98661.09;;;34.17;34.51
13241;BME280;6687;47.790;7.322;2023-06-22T16:07:24;98667.75;;;34.13;34.68
13241;BME280;6687;47.790;7.322;2023-06-22T16:09:52;98665.50;;;34.18;34.61
13241;BME280;6687;47.790;7.322;2023-06-22T16:12:19;98671.81;;;33.99;34.35
13241;BME280;6687;47.790;7.322;2023-06-22T16:14:45;98661.22;;;33.98;34.17
13241;BME280;6687;47.790;7.322;2023-06-22T16:17:13;98643.63;;;34.21;32.43
13241;BME280;6687;47.790;7.322;2023-06-22T16:19:40;98631.34;;;34.01;32.05
13241;BME280;6687;47.790;7.322;2023-06-22T16:22:07;98632.34;;;34.18;32.18
13241;BME280;6687;47.790;7.322;2023-06-22T16:24:34;98631.03;;;34.04;33.10
13241;BME280;6687;47.790;7.322;2023-06-22T16:27:00;98646.47;;;33.66;32.26
13241;BME280;6687;47.790;7.322;2023-06-22T16:29:27;98652.34;;;34.15;32.66
13241;BME280;6687;47.790;7.322;2023-06-22T16:31:54;98655.69;;;33.81;32.34
13241;BME280;6687;47.790;7.322;2023-06-22T16:34:22;98675.63;;;34.24;31.84
13241;BME280;6687;47.790;7.322;2023-06-22T16:36:49;98683.38;;;34.72;32.82
13241;BME280;6687;47.790;7.322;2023-06-22T16:39:15;98688.53;;;34.91;32.12
13241;BME280;6687;47.790;7.322;2023-06-22T16:41:42;98695.16;;;34.71;31.71
13241;BME280;6687;47.790;7.322;2023-06-22T16:44:10;98699.88;;;33.97;31.93
13241;BME280;6687;47.790;7.322;2023-06-22T16:46:37;98697.84;;;33.63;32.27
13241;BME280;6687;47.790;7.322;2023-06-22T16:49:04;98674.56;;;33.06;32.94
13241;BME280;6687;47.790;7.322;2023-06-22T16:51:33;98672.38;;;32.92;33.82
13241;BME280;6687;47.790;7.322;2023-06-22T16:53:59;98688.31;;;33.03;33.67
13241;BME280;6687;47.790;7.322;2023-06-22T16:56:26;98712.72;;;33.20;33.10
13241;BME280;6687;47.790;7.322;2023-06-22T16:58:55;98713.94;;;32.78;32.68
13241;BME280;6687;47.790;7.322;2023-06-22T17:01:22;98705.78;;;32.70;33.40
13241;BME280;6687;47.790;7.322;2023-06-22T17:03:59;98714.56;;;32.23;32.91
13241;BME280;6687;47.790;7.322;2023-06-22T17:06:27;98723.31;;;32.16;33.10
13241;BME280;6687;47.790;7.322;2023-06-22T17:08:56;98726.41;;;32.50;32.70
13241;BME280;6687;47.790;7.322;2023-06-22T17:11:23;98728.69;;;32.25;32.00
13241;BME280;6687;47.790;7.322;2023-06-22T17:13:50;98726.72;;;31.67;32.02
13241;BME280;6687;47.790;7.322;2023-06-22T17:16:17;98729.25;;;32.58;32.23
13241;BME280;6687;47.790;7.322;2023-06-22T17:18:46;98732.03;;;32.47;33.79
13241;BME280;6687;47.790;7.322;2023-06-22T17:21:20;98729.13;;;31.70;32.02
13241;BME280;6687;47.790;7.322;2023-06-22T17:23:48;98747.22;;;31.78;32.68
13241;BME280;6687;47.790;7.322;2023-06-22T17:26:16;98763.09;;;32.20;34.29
13241;BME280;6687;47.790;7.322;2023-06-22T17:28:46;98785.69;;;32.18;34.94
13241;BME280;6687;47.790;7.322;2023-06-22T17:31:12;98788.91;;;31.71;37.45
13241;BME280;6687;47.790;7.322;2023-06-22T17:33:39;98794.75;;;31.24;39.20
13241;BME280;6687;47.790;7.322;2023-06-22T17:36:11;98792.53;;;30.66;40.20
13241;BME280;6687;47.790;7.322;2023-06-22T17:38:38;98800.91;;;30.29;40.55
13241;BME280;6687;47.790;7.322;2023-06-22T17:41:04;98819.88;;;30.26;40.76
13241;BME280;6687;47.790;7.322;2023-06-22T17:43:33;98846.59;;;30.38;41.05
13241;BME280;6687;47.790;7.322;2023-06-22T17:46:09;98867.16;;;30.14;40.79
13241;BME280;6687;47.790;7.322;2023-06-22T17:48:36;98873.59;;;30.12;39.52
13241;BME280;6687;47.790;7.322;2023-06-22T17:51:03;98873.34;;;30.15;39.95
13241;BME280;6687;47.790;7.322;2023-06-22T17:53:31;98866.56;;;30.11;37.74
13241;BME280;6687;47.790;7.322;2023-06-22T17:56:00;98857.81;;;29.98;38.13
13241;BME280;6687;47.790;7.322;2023-06-22T17:58:27;98864.50;;;30.03;38.96
13241;BME280;6687;47.790;7.322;2023-06-22T18:00:56;98877.75;;;29.24;39.94
13241;BME280;6687;47.790;7.322;2023-06-22T18:03:23;98871.38;;;29.49;39.86
13241;BME280;6687;47.790;7.322;2023-06-22T18:05:50;98867.97;;;29.47;39.44
13241;BME280;6687;47.790;7.322;2023-06-22T18:08:24;98870.28;;;29.52;39.88
13241;BME280;6687;47.790;7.322;2023-06-22T18:10:53;98880.84;;;29.07;40.82
13241;BME280;6687;47.790;7.322;2023-06-22T18:13:23;98886.41;;;29.39;40.45
13241;BME280;6687;47.790;7.322;2023-06-22T18:15:51;98900.69;;;29.15;41.05
13241;BME280;6687;47.790;7.322;2023-06-22T18:18:21;98902.72;;;28.88;41.86
13241;BME280;6687;47.790;7.322;2023-06-22T18:20:50;98905.31;;;28.76;41.57
13241;BME280;6687;47.790;7.322;2023-06-22T18:23:18;98915.31;;;28.86;41.97
13241;BME280;6687;47.790;7.322;2023-06-22T18:25:45;98920.47;;;28.76;43.89
13241;BME280;6687;47.790;7.322;2023-06-22T18:28:14;98919.97;;;28.71;43.11
13241;BME280;6687;47.790;7.322;2023-06-22T18:30:42;98924.00;;;28.40;43.93
13241;BME280;6687;47.790;7.322;2023-06-22T18:33:09;98944.28;;;28.29;45.16